Time;durP1;ratioP1;P1;durP2;ratioP2;P2;SDS_P1;SDS_P2;PMS_P1;PMS_P2;Temp;Humidity;BMP_temperature;BMP_pressure;BME280_temperature;BME280_humidity;BME280_pressure;Samples;Min_cycle;Max_cycle;Signal;HPM_P1;HPM_P2
2023/03/14 00:00:11;;;;;;;1.15;0.60;;;;;;;8.10;100.00;95620.75;5066481;28;20575;-60
2023/03/14 00:02:38;;;;;;;2.15;0.60;;;;;;;8.10;100.00;95643.09;5071172;28;20039;-60
2023/03/14 00:05:08;;;;;;;0.90;0.50;;;;;;;8.10;100.00;95645.81;5065492;28;20032;-59
2023/03/14 00:07:37;;;;;;;2.83;0.70;;;;;;;8.09;100.00;95641.50;5065546;28;20572;-59
2023/03/14 00:10:10;;;;;;;1.42;0.60;;;;;;;8.17;100.00;95646.31;5077307;28;20453;-59
2023/03/14 00:12:36;;;;;;;0.50;0.30;;;;;;;8.09;100.00;95641.50;5068556;28;20044;-60
2023/03/14 00:15:04;;;;;;;0.85;0.57;;;;;;;8.11;100.00;95646.63;5074963;28;20040;-60
2023/03/14 00:17:30;;;;;;;1.10;0.60;;;;;;;8.07;100.00;95644.47;5063324;28;20058;-60
2023/03/14 00:20:03;;;;;;;1.75;0.70;;;;;;;8.07;100.00;95647.16;5071714;28;20048;-60
2023/03/14 00:22:31;;;;;;;2.55;0.70;;;;;;;8.09;100.00;95641.50;5063935;28;20047;-60
2023/03/14 00:24:57;;;;;;;1.65;0.70;;;;;;;8.04;100.00;95636.16;5070210;28;20545;-60
2023/03/14 00:27:24;;;;;;;2.10;0.70;;;;;;;7.98;100.00;95634.56;5068081;28;20044;-60
2023/03/14 00:29:50;;;;;;;2.42;1.48;;;;;;;7.97;100.00;95641.03;5072320;28;20105;-60
2023/03/14 00:32:17;;;;;;;1.42;0.70;;;;;;;7.95;100.00;95635.91;5067322;28;20043;-60
2023/03/14 00:34:44;;;;;;;2.80;0.90;;;;;;;7.96;100.00;95648.31;5069071;28;20056;-60
2023/03/14 00:37:10;;;;;;;2.42;0.80;;;;;;;7.93;100.00;95638.88;5060880;28;20113;-60
2023/03/14 00:39:37;;;;;;;2.55;0.65;;;;;;;7.96;100.00;95637.53;5072967;28;20046;-60
2023/03/14 00:42:04;;;;;;;1.80;0.70;;;;;;;7.85;100.00;95631.38;5064144;28;20085;-60
2023/03/14 00:44:31;;;;;;;2.63;0.90;;;;;;;7.83;100.00;95636.25;5067676;28;20136;-59
2023/03/14 00:46:58;;;;;;;0.95;0.68;;;;;;;7.84;100.00;95637.03;5067697;28;20051;-59
2023/03/14 00:49:25;;;;;;;2.33;1.38;;;;;;;7.89;100.00;95637.03;5048949;28;20047;-60
2023/03/14 00:51:52;;;;;;;1.90;0.80;;;;;;;7.89;100.00;95651.31;5070199;28;20563;-59
2023/03/14 00:54:21;;;;;;;2.08;1.00;;;;;;;7.88;100.00;95638.09;5066156;28;20131;-60
2023/03/14 00:56:48;;;;;;;1.92;0.80;;;;;;;7.86;100.00;95651.06;5068305;28;20064;-60
2023/03/14 00:59:15;;;;;;;1.75;0.95;;;;;;;7.92;100.00;95661.53;5070930;28;20051;-60
2023/03/14 01:01:42;;;;;;;2.30;0.80;;;;;;;8.02;100.00;95665.25;5067765;28;20041;-60
2023/03/14 01:04:08;;;;;;;1.60;0.63;;;;;;;8.14;100.00;95660.34;5070795;28;20048;-60
2023/03/14 01:06:35;;;;;;;1.27;0.60;;;;;;;8.17;100.00;95670.56;5068264;28;20116;-60
2023/03/14 01:09:02;;;;;;;1.13;0.40;;;;;;;8.18;100.00;95660.56;5071897;28;20074;-60
2023/03/14 01:11:32;;;;;;;2.95;0.70;;;;;;;8.09;100.00;95654.97;5067020;28;20043;-60
2023/03/14 01:13:59;;;;;;;2.58;0.90;;;;;;;8.05;100.00;95651.22;5061206;28;20094;-60
2023/03/14 01:16:29;;;;;;;1.73;0.73;;;;;;;8.03;100.00;95646.13;5070291;28;20115;-60
2023/03/14 01:18:59;;;;;;;1.67;0.77;;;;;;;8.03;100.00;95646.13;5069462;28;20037;-60
2023/03/14 01:21:29;;;;;;;2.25;0.80;;;;;;;8.09;100.00;95643.38;5073686;28;20094;-60
2023/03/14 01:23:58;;;;;;;2.10;0.70;;;;;;;8.18;100.00;95639.00;5071421;28;20093;-60
2023/03/14 01:26:27;;;;;;;1.25;0.65;;;;;;;8.14;100.00;95622.59;5071579;28;20055;-60
2023/03/14 01:28:55;;;;;;;1.00;0.70;;;;;;;8.21;100.00;95603.41;5070084;28;20044;-60
2023/03/14 01:31:23;;;;;;;2.33;0.55;;;;;;;8.20;100.00;95588.31;5077065;28;20068;-59
2023/03/14 01:33:50;;;;;;;2.95;0.70;;;;;;;8.18;100.00;95583.22;5073777;28;20500;-59
2023/03/14 01:36:17;;;;;;;1.88;0.70;;;;;;;8.17;100.00;95570.00;5069045;28;20051;-60
2023/03/14 01:38:44;;;;;;;1.35;0.50;;;;;;;8.14;100.00;95559.81;5075707;28;20135;-60
2023/03/14 01:41:18;;;;;;;1.23;0.60;;;;;;;8.12;100.00;95543.09;5066458;28;20037;-59
2023/03/14 01:43:45;;;;;;;1.05;0.50;;;;;;;8.07;100.00;95535.84;5079111;28;20580;-60
2023/03/14 01:46:17;;;;;;;0.90;0.40;;;;;;;8.06;100.00;95543.13;5068777;28;20044;-61
2023/03/14 01:48:52;;;;;;;0.90;0.50;;;;;;;8.03;100.00;95538.31;5069874;28;20511;-60
2023/03/14 01:51:25;;;;;;;1.27;0.70;;;;;;;8.03;100.00;95542.88;5069149;28;20040;-61
2023/03/14 01:53:59;;;;;;;1.15;0.50;;;;;;;8.03;100.00;95545.56;5071187;28;20043;-60
2023/03/14 01:56:26;;;;;;;1.17;0.55;;;;;;;8.03;100.00;95535.59;5076206;28;20051;-60
2023/03/14 01:58:53;;;;;;;1.40;0.65;;;;;;;7.96;100.00;95537.03;5054624;28;20039;-60
2023/03/14 02:01:24;;;;;;;2.20;0.50;;;;;;;7.91;100.00;95535.16;5072239;28;20036;-59
2023/03/14 02:03:58;;;;;;;0.93;0.52;;;;;;;7.88;100.00;95543.78;5075801;28;20044;-60
2023/03/14 02:06:33;;;;;;;0.60;0.40;;;;;;;7.94;100.00;95545.38;5068816;28;20044;-60
2023/03/14 02:09:01;;;;;;;0.85;0.40;;;;;;;7.94;100.00;95546.19;5069201;28;20048;-60
2023/03/14 02:11:31;;;;;;;1.27;0.45;;;;;;;7.98;100.00;95551.81;5067780;28;20060;-60
2023/03/14 02:14:04;;;;;;;1.35;0.60;;;;;;;7.98;100.00;95543.72;5076352;28;20089;-60
2023/03/14 02:16:51;;;;;;;2.65;0.60;;;;;;;7.98;100.00;95534.84;5074103;28;20068;-60
2023/03/14 02:20:05;;;;;;;2.20;0.63;;;;;;;7.89;100.00;95546.22;5072072;28;20125;-59
2023/03/14 02:22:41;;;;;;;1.98;0.50;;;;;;;7.91;100.00;95533.28;5075937;28;20142;-59
2023/03/14 02:25:27;;;;;;;1.75;0.40;;;;;;;7.97;100.00;95519.75;5067356;28;20054;-58
2023/03/14 02:27:54;;;;;;;1.10;0.40;;;;;;;8.01;100.00;95510.84;5070874;28;20040;-60
2023/03/14 02:30:24;;;;;;;1.50;0.68;;;;;;;8.02;100.00;95503.53;5072553;28;20219;-59
2023/03/14 02:32:55;;;;;;;2.90;0.73;;;;;;;7.96;100.00;95510.06;5067260;28;20045;-60
2023/03/14 02:35:25;;;;;;;0.82;0.50;;;;;;;8.02;100.00;95501.66;5073327;28;20045;-59
2023/03/14 02:38:03;;;;;;;0.85;0.40;;;;;;;7.92;100.00;95504.41;5077272;28;20063;-59
2023/03/14 02:40:34;;;;;;;1.08;0.60;;;;;;;7.97;100.00;95500.88;5058213;28;20435;-59
2023/03/14 02:43:01;;;;;;;1.85;0.47;;;;;;;7.98;100.00;95507.88;5070096;28;20041;-59
2023/03/14 02:45:42;;;;;;;3.17;0.65;;;;;;;7.97;100.00;95493.63;5054963;28;20125;-59
2023/03/14 02:48:30;;;;;;;1.17;0.45;;;;;;;7.92;100.00;95489.06;5074237;28;20037;-59
2023/03/14 02:50:59;;;;;;;0.50;0.40;;;;;;;7.93;100.00;95497.97;5072802;28;20052;-60
2023/03/14 02:53:33;;;;;;;1.33;0.40;;;;;;;7.91;100.00;95486.66;5072319;28;20047;-58
2023/03/14 02:56:05;;;;;;;1.63;0.60;;;;;;;7.90;100.00;95477.78;5082766;28;20048;-59
2023/03/14 02:58:35;;;;;;;2.30;0.50;;;;;;;7.92;100.00;95474.78;5076282;28;20052;-59
2023/03/14 03:01:10;;;;;;;1.10;0.55;;;;;;;7.99;100.00;95453.69;5071100;28;20039;-59
2023/03/14 03:03:37;;;;;;;1.50;0.70;;;;;;;7.97;100.00;95444.28;5071846;28;20041;-59
2023/03/14 03:06:04;;;;;;;3.75;0.70;;;;;;;7.94;100.00;95442.97;5071566;28;20067;-57
2023/03/14 03:08:31;;;;;;;0.65;0.40;;;;;;;7.93;100.00;95435.97;5076812;28;20044;-61
2023/03/14 03:10:59;;;;;;;6.65;0.60;;;;;;;7.89;100.00;95437.63;5075964;28;20087;-60
2023/03/14 03:13:28;;;;;;;1.38;0.60;;;;;;;7.91;100.00;95420.09;5072484;28;20203;-59
2023/03/14 03:15:56;;;;;;;2.05;0.50;;;;;;;7.86;100.00;95417.44;5071833;28;20097;-60
2023/03/14 03:18:22;;;;;;;1.50;0.60;;;;;;;7.88;100.00;95409.06;5073545;28;20036;-60
2023/03/14 03:20:49;;;;;;;2.10;0.40;;;;;;;7.91;100.00;95409.31;5075673;28;20557;-58
2023/03/14 03:23:15;;;;;;;1.95;0.60;;;;;;;7.90;100.00;95402.31;5069744;28;20044;-58
2023/03/14 03:25:48;;;;;;;0.68;0.30;;;;;;;7.96;100.00;95404.97;5072262;28;20048;-60
2023/03/14 03:28:14;;;;;;;3.35;0.60;;;;;;;7.86;100.00;95395.91;5085264;27;20040;-59
2023/03/14 03:30:42;;;;;;;2.63;0.57;;;;;;;7.85;100.00;95402.34;5074175;28;20561;-59
2023/03/14 03:33:10;;;;;;;3.78;0.80;;;;;;;7.86;100.00;95392.38;5071516;28;20040;-59
2023/03/14 03:35:44;;;;;;;2.03;0.55;;;;;;;7.81;100.00;95396.72;5071948;28;20035;-59
2023/03/14 03:38:12;;;;;;;2.40;0.40;;;;;;;7.80;100.00;95388.94;5068120;28;20155;-59
2023/03/14 03:40:40;;;;;;;3.05;0.65;;;;;;;7.76;100.00;95379.81;5069605;28;20051;-59
2023/03/14 03:43:08;;;;;;;1.70;0.50;;;;;;;7.71;100.00;95375.28;5074314;28;20047;-59
2023/03/14 03:45:37;;;;;;;1.65;0.55;;;;;;;7.64;100.00;95370.22;5074924;28;20129;-60
2023/03/14 03:48:05;;;;;;;1.30;0.68;;;;;;;7.68;100.00;95362.38;5072874;28;20049;-59
2023/03/14 03:50:32;;;;;;;3.70;0.60;;;;;;;7.70;100.00;95378.25;5062682;28;20059;-59
2023/03/14 03:52:58;;;;;;;2.47;0.45;;;;;;;7.66;100.00;95368.03;5073851;28;20047;-59
2023/03/14 03:55:26;;;;;;;2.40;0.70;;;;;;;7.68;100.00;95373.13;5064909;28;20764;-60
2023/03/14 03:57:52;;;;;;;2.75;0.40;;;;;;;7.67;100.00;95361.56;5065937;28;20032;-59
2023/03/14 04:00:19;;;;;;;2.58;0.50;;;;;;;7.62;100.00;95358.09;5049664;28;20050;-60
2023/03/14 04:02:46;;;;;;;0.70;0.30;;;;;;;7.59;100.00;95372.94;5063830;28;20522;-59
2023/03/14 04:05:16;;;;;;;2.28;0.60;;;;;;;7.55;100.00;95361.94;5062983;28;20497;-59
2023/03/14 04:07:49;;;;;;;2.88;0.60;;;;;;;7.57;100.00;95367.03;5057485;28;20062;-59
2023/03/14 04:10:21;;;;;;;4.72;0.80;;;;;;;7.63;100.00;95365.91;5066458;28;20145;-58
2023/03/14 04:13:04;;;;;;;2.92;0.73;;;;;;;7.63;100.00;95365.13;5075664;28;20028;-59
2023/03/14 04:15:32;;;;;;;0.88;0.40;;;;;;;7.58;100.00;95365.94;5072840;28;20046;-59
2023/03/14 04:18:03;;;;;;;1.17;0.50;;;;;;;7.58;100.00;95365.13;5065783;28;20036;-60
2023/03/14 04:20:30;;;;;;;2.75;0.75;;;;;;;7.52;100.00;95356.31;5064005;28;20541;-58
2023/03/14 04:22:57;;;;;;;1.40;0.43;;;;;;;7.45;100.00;95364.72;5070656;28;20036;-59
2023/03/14 04:25:25;;;;;;;5.30;0.57;;;;;;;7.47;100.00;95359.84;5064865;28;21296;-59
2023/03/14 04:27:55;;;;;;;2.30;0.50;;;;;;;7.49;99.28;95364.94;5070944;28;20419;-60
2023/03/14 04:30:24;;;;;;;2.05;0.80;;;;;;;7.49;99.16;95352.28;5065594;28;20127;-59
2023/03/14 04:32:54;;;;;;;4.82;1.10;;;;;;;7.50;99.38;95355.78;5070066;28;20127;-60
2023/03/14 04:35:23;;;;;;;2.55;0.85;;;;;;;7.44;99.56;95351.53;5066880;28;20048;-60
2023/03/14 04:37:54;;;;;;;2.58;1.33;;;;;;;7.40;99.76;95349.38;5066593;28;20043;-59
2023/03/14 04:40:21;;;;;;;1.85;0.60;;;;;;;7.39;99.98;95342.41;5059664;28;20047;-60
2023/03/14 04:42:51;;;;;;;2.03;0.73;;;;;;;7.36;99.83;95336.75;5067200;28;20042;-60
2023/03/14 04:45:18;;;;;;;2.20;0.80;;;;;;;7.34;100.00;95339.72;5064851;28;20040;-59
2023/03/14 04:47:45;;;;;;;3.28;0.60;;;;;;;7.34;99.78;95331.66;5063619;28;20048;-57
2023/03/14 04:50:16;;;;;;;2.87;0.80;;;;;;;7.43;99.22;95339.94;5063496;28;20823;-59
2023/03/14 04:52:43;;;;;;;3.78;1.23;;;;;;;7.44;98.98;95336.16;5067116;28;20076;-59
2023/03/14 04:55:09;;;;;;;2.33;0.68;;;;;;;7.48;98.45;95333.72;5063609;28;20044;-58
2023/03/14 04:57:37;;;;;;;1.85;0.60;;;;;;;7.50;97.94;95340.44;5072870;28;20048;-58
2023/03/14 05:00:07;;;;;;;7.13;2.10;;;;;;;7.50;98.09;95331.53;5067605;28;20448;-58
2023/03/14 05:03:06;;;;;;;6.25;1.50;;;;;;;7.37;98.76;95322.25;5069271;28;20178;-57
2023/03/14 05:05:44;;;;;;;2.28;0.57;;;;;;;7.40;99.04;95329.72;5072149;28;20597;-58
2023/03/14 05:08:37;;;;;;;4.10;0.88;;;;;;;7.33;98.93;95324.66;5077187;28;20074;-58
2023/03/14 05:11:18;;;;;;;3.72;0.80;;;;;;;7.35;98.67;95324.41;5074150;28;20044;-60
2023/03/14 05:14:17;;;;;;;2.95;0.55;;;;;;;7.30;99.04;95330.63;5061195;28;20091;-58
2023/03/14 05:16:59;;;;;;;4.25;0.60;;;;;;;7.26;99.26;95316.91;5075291;28;20991;-59
2023/03/14 05:20:08;;;;;;;2.92;0.95;;;;;;;7.17;100.00;95310.53;5058245;28;20126;-58
2023/03/14 05:22:53;;;;;;;3.28;0.80;;;;;;;7.13;100.00;95291.47;5083208;28;20105;-58
2023/03/14 05:25:45;;;;;;;4.60;0.90;;;;;;;7.15;100.00;95297.34;5069453;28;20785;-59
2023/03/14 05:28:31;;;;;;;3.95;0.93;;;;;;;7.12;100.00;95292.53;5066186;28;20043;-59
2023/03/14 05:31:12;;;;;;;3.75;0.85;;;;;;;7.27;99.26;95306.97;5072914;28;20040;-58
2023/03/14 05:33:52;;;;;;;3.30;0.70;;;;;;;7.39;98.14;95312.78;5076507;28;20554;-59
2023/03/14 05:36:32;;;;;;;3.85;0.60;;;;;;;7.42;98.05;95317.59;5072931;28;20098;-58
2023/03/14 05:39:10;;;;;;;1.98;0.43;;;;;;;7.42;98.48;95290.66;5072804;28;20044;-59
2023/03/14 05:41:45;;;;;;;3.63;0.57;;;;;;;7.36;98.47;95297.19;5077016;28;20040;-59
2023/03/14 05:44:22;;;;;;;2.28;0.68;;;;;;;7.39;98.67;95295.81;5074823;28;20107;-58
2023/03/14 05:47:06;;;;;;;4.10;0.63;;;;;;;7.36;98.94;95297.19;5074940;28;20043;-58
2023/03/14 05:49:53;;;;;;;2.22;0.75;;;;;;;7.42;98.42;95297.97;5070646;28;20105;-59
2023/03/14 05:52:47;;;;;;;2.65;1.00;;;;;;;7.35;98.97;95274.06;5077425;28;20072;-59
2023/03/14 05:55:34;;;;;;;3.33;0.40;;;;;;;7.30;99.02;95282.19;5057073;28;20080;-60
2023/03/14 05:58:36;;;;;;;1.20;0.60;;;;;;;7.30;99.08;95276.81;5009068;28;20353;-59
2023/03/14 06:01:12;;;;;;;1.88;0.40;;;;;;;7.32;98.66;95269.22;5060311;28;20055;-60
2023/03/14 06:04:04;;;;;;;1.15;0.40;;;;;;;7.32;99.29;95265.72;5059595;28;20066;-60
2023/03/14 06:06:32;;;;;;;1.60;0.52;;;;;;;7.39;98.37;95258.13;5073226;28;20047;-61
2023/03/14 06:08:59;;;;;;;2.33;0.30;;;;;;;7.40;97.87;95260.53;5077460;28;20048;-60
2023/03/14 06:11:28;;;;;;;1.95;1.02;;;;;;;7.44;97.44;95259.97;5069144;28;20519;-60
2023/03/14 06:13:55;;;;;;;1.38;0.50;;;;;;;7.41;97.52;95261.34;5063004;28;20055;-60
2023/03/14 06:16:21;;;;;;;3.15;0.50;;;;;;;7.43;97.53;95259.16;5075146;28;20036;-60
2023/03/14 06:18:48;;;;;;;3.20;0.57;;;;;;;7.45;96.83;95258.88;5069504;28;20060;-59
2023/03/14 06:21:19;;;;;;;6.47;0.70;;;;;;;7.52;96.16;95270.13;5068369;28;21010;-61
2023/03/14 06:23:46;;;;;;;3.67;0.52;;;;;;;7.52;95.39;95275.53;5072221;28;20047;-58
2023/03/14 06:26:13;;;;;;;1.30;0.40;;;;;;;7.55;95.24;95272.25;5075618;28;20071;-61
2023/03/14 06:28:40;;;;;;;2.15;0.50;;;;;;;7.61;94.63;95271.13;5073173;28;20064;-60
2023/03/14 06:31:07;;;;;;;2.92;0.50;;;;;;;7.64;94.23;95281.34;5074383;28;20043;-61
2023/03/14 06:33:42;;;;;;;0.88;0.40;;;;;;;7.66;94.33;95262.97;5073626;28;20455;-61
2023/03/14 06:36:09;;;;;;;3.45;0.43;;;;;;;7.71;93.80;95267.53;5069675;28;20043;-61
2023/03/14 06:38:40;;;;;;;4.65;0.68;;;;;;;7.73;93.68;95265.34;5070356;28;20093;-60
2023/03/14 06:41:08;;;;;;;1.60;0.57;;;;;;;7.78;93.07;95277.97;5070267;28;20123;-61
2023/03/14 06:43:38;;;;;;;2.47;0.57;;;;;;;7.77;93.73;95279.03;5070120;28;20770;-60
2023/03/14 06:46:06;;;;;;;0.95;0.38;;;;;;;7.84;92.75;95268.72;5061836;28;20552;-60
2023/03/14 06:48:35;;;;;;;1.58;0.43;;;;;;;7.76;94.10;95272.84;5070575;28;20146;-61
2023/03/14 06:51:02;;;;;;;3.70;0.82;;;;;;;7.71;94.98;95272.09;5071063;28;20118;-61
2023/03/14 06:53:29;;;;;;;1.80;0.40;;;;;;;7.70;95.19;95273.19;5070551;28;20131;-61
2023/03/14 06:55:58;;;;;;;1.42;0.40;;;;;;;7.77;93.58;95263.69;5067607;28;20159;-61
2023/03/14 06:58:26;;;;;;;2.05;0.47;;;;;;;7.85;94.22;95264.94;5070824;28;20060;-61
2023/03/14 07:00:54;;;;;;;2.55;0.40;;;;;;;7.99;93.17;95269.66;5070974;28;20075;-61
2023/03/14 07:03:25;;;;;;;3.88;0.47;;;;;;;8.06;92.98;95270.91;5076727;28;20040;-60
2023/03/14 07:05:54;;;;;;;1.05;0.38;;;;;;;8.22;92.57;95269.91;5064923;28;20067;-60
2023/03/14 07:08:20;;;;;;;2.17;0.73;;;;;;;8.36;91.75;95267.31;5066373;28;20048;-60
2023/03/14 07:10:47;;;;;;;1.08;0.30;;;;;;;8.44;91.90;95272.84;5066915;28;20054;-60
2023/03/14 07:13:16;;;;;;;1.20;0.30;;;;;;;8.53;90.73;95269.53;5066586;28;20044;-60
2023/03/14 07:15:54;;;;;;;0.60;0.30;;;;;;;8.64;91.45;95279.13;5068337;28;20111;-60
2023/03/14 07:18:22;;;;;;;0.77;0.22;;;;;;;8.81;89.64;95288.59;5064199;28;20131;-61
2023/03/14 07:20:48;;;;;;;1.15;0.40;;;;;;;8.88;88.37;95291.72;5062761;28;20048;-60
2023/03/14 07:23:18;;;;;;;1.65;0.47;;;;;;;9.00;88.83;95280.50;5074764;28;20051;-59
2023/03/14 07:25:51;;;;;;;2.67;0.57;;;;;;;9.11;87.70;95287.31;5070594;28;20048;-58
2023/03/14 07:28:19;;;;;;;2.72;0.40;;;;;;;9.15;86.36;95284.03;5063483;28;20071;-60
2023/03/14 07:30:49;;;;;;;1.63;0.38;;;;;;;9.28;86.24;95291.38;5069702;28;20058;-60
2023/03/14 07:33:21;;;;;;;0.85;0.22;;;;;;;9.43;85.82;95290.31;5075015;28;20044;-60
2023/03/14 07:35:49;;;;;;;1.63;0.40;;;;;;;9.53;86.00;95305.56;5049874;28;20415;-60
2023/03/14 07:38:16;;;;;;;1.85;0.52;;;;;;;9.63;84.64;95293.78;5063053;28;20044;-60
2023/03/14 07:41:10;;;;;;;1.80;0.20;;;;;;;9.65;83.29;95302.38;5065719;28;20534;-59
2023/03/14 07:43:45;;;;;;;0.93;0.20;;;;;;;9.79;83.71;95297.00;5065321;28;20047;-60
2023/03/14 07:46:11;;;;;;;0.68;0.30;;;;;;;9.87;82.49;95290.09;5069176;28;20126;-60
2023/03/14 07:48:38;;;;;;;1.20;0.30;;;;;;;9.86;82.80;95299.31;5065746;28;20266;-59
2023/03/14 07:51:05;;;;;;;0.70;0.20;;;;;;;9.88;81.93;95300.63;5070895;28;20048;-60
2023/03/14 07:53:31;;;;;;;0.65;0.10;;;;;;;9.87;82.45;95309.84;5072366;28;20159;-60
2023/03/14 07:55:58;;;;;;;2.15;0.20;;;;;;;9.89;82.61;95312.25;5069885;28;20131;-59
2023/03/14 07:58:25;;;;;;;0.40;0.10;;;;;;;10.01;82.10;95311.75;5074085;28;20040;-49
2023/03/14 08:00:52;;;;;;;1.45;0.20;;;;;;;10.05;80.86;95301.13;5075701;28;20802;-57
2023/03/14 08:03:19;;;;;;;0.40;0.30;;;;;;;10.02;80.78;95311.47;5063863;28;20069;-59
2023/03/14 08:05:50;;;;;;;0.90;0.30;;;;;;;10.20;81.20;95308.97;5066009;28;20051;-59
2023/03/14 08:08:18;;;;;;;1.30;0.20;;;;;;;10.16;80.40;95321.47;5066864;28;20051;-58
2023/03/14 08:10:46;;;;;;;0.30;0.20;;;;;;;10.11;80.15;95310.75;5073494;28;20292;-59
2023/03/14 08:13:13;;;;;;;0.65;0.30;;;;;;;10.04;79.81;95305.75;5069360;28;20036;-59
2023/03/14 08:15:39;;;;;;;1.60;0.22;;;;;;;10.00;79.47;95305.53;5073426;28;20039;-60
2023/03/14 08:18:06;;;;;;;0.32;0.20;;;;;;;10.12;79.96;95312.34;5076599;28;20495;-59
2023/03/14 08:20:32;;;;;;;1.90;0.40;;;;;;;10.17;79.79;95314.97;5066799;28;20036;-59
2023/03/14 08:23:00;;;;;;;2.75;0.28;;;;;;;10.21;78.60;95315.97;5074074;28;20048;-59
2023/03/14 08:25:27;;;;;;;0.55;0.10;;;;;;;10.35;78.62;95317.84;5069426;28;20507;-59
2023/03/14 08:27:54;;;;;;;0.43;0.20;;;;;;;10.48;76.16;95316.28;5064445;28;20044;-60
2023/03/14 08:30:22;;;;;;;1.05;0.22;;;;;;;10.68;76.32;95316.97;5068402;28;20035;-59
2023/03/14 08:32:49;;;;;;;0.80;0.22;;;;;;;10.77;74.87;95309.75;5067721;28;20044;-58
2023/03/14 08:35:15;;;;;;;2.25;0.38;;;;;;;10.64;73.59;95323.00;5066380;28;20624;-57
2023/03/14 08:37:42;;;;;;;0.38;0.13;;;;;;;10.39;74.12;95316.16;5070406;28;20051;-60
2023/03/14 08:40:10;;;;;;;2.13;0.50;;;;;;;10.45;76.27;95331.22;5066270;28;20048;-61
2023/03/14 08:42:38;;;;;;;1.05;0.10;;;;;;;10.53;74.15;95329.72;5065453;28;20096;-61
2023/03/14 08:45:06;;;;;;;2.25;0.50;;;;;;;10.35;76.23;95325.97;5068693;28;20519;-61
2023/03/14 08:47:33;;;;;;;2.75;0.55;;;;;;;10.22;77.02;95328.41;5069691;28;20097;-60
2023/03/14 08:49:59;;;;;;;2.28;0.30;;;;;;;10.28;77.19;95329.91;5069544;28;20032;-61
2023/03/14 08:52:26;;;;;;;0.80;0.15;;;;;;;10.17;76.72;95325.78;5070799;28;20078;-61
2023/03/14 08:54:53;;;;;;;0.77;0.10;;;;;;;9.87;78.63;95331.47;5074854;28;20660;-61
2023/03/14 08:57:21;;;;;;;2.75;0.57;;;;;;;9.76;79.60;95333.53;5078051;28;20093;-59
2023/03/14 08:59:48;;;;;;;1.50;0.30;;;;;;;9.77;80.45;95342.47;5065786;28;20123;-62
2023/03/14 09:02:14;;;;;;;1.73;0.40;;;;;;;9.62;81.99;95346.22;5062948;28;20064;-61
2023/03/14 09:04:41;;;;;;;2.47;0.28;;;;;;;9.55;84.06;95345.81;5066602;28;20047;-61
2023/03/14 09:07:07;;;;;;;2.13;0.50;;;;;;;9.41;85.84;95356.53;5063503;28;20599;-62
2023/03/14 09:09:34;;;;;;;2.40;0.45;;;;;;;9.45;86.87;95349.47;5065759;28;20098;-61
2023/03/14 09:12:00;;;;;;;1.33;0.50;;;;;;;9.43;84.83;95357.84;5071815;28;20040;-60
2023/03/14 09:14:27;;;;;;;2.05;0.63;;;;;;;9.46;86.67;95375.38;5072434;28;20048;-60
2023/03/14 09:16:54;;;;;;;1.60;0.30;;;;;;;9.63;83.97;95374.84;5072475;28;20743;-58
2023/03/14 09:19:20;;;;;;;0.63;0.40;;;;;;;9.68;85.67;95369.34;5067999;28;20059;-61
2023/03/14 09:21:47;;;;;;;2.15;0.38;;;;;;;9.56;83.75;95360.91;5067553;28;20680;-62
2023/03/14 09:24:14;;;;;;;1.55;0.30;;;;;;;9.50;84.36;95381.78;5066279;28;20050;-61
2023/03/14 09:26:41;;;;;;;1.55;0.30;;;;;;;9.57;84.54;95384.94;5071803;28;20040;-63
2023/03/14 09:29:07;;;;;;;2.00;0.30;;;;;;;9.65;84.27;95386.16;5066363;28;20046;-63
2023/03/14 09:31:35;;;;;;;0.43;0.20;;;;;;;9.67;83.01;95385.84;5062460;28;20040;-61
2023/03/14 09:34:01;;;;;;;0.75;0.30;;;;;;;9.63;83.77;95396.47;5056301;28;20471;-64
2023/03/14 09:36:28;;;;;;;0.98;0.20;;;;;;;9.50;83.84;95400.69;5066091;28;20075;-62
2023/03/14 09:38:55;;;;;;;0.70;0.20;;;;;;;9.50;84.92;95403.41;5065778;28;20043;-60
2023/03/14 09:41:27;;;;;;;0.40;0.17;;;;;;;9.58;84.79;95410.06;5066519;28;20033;-60
2023/03/14 09:44:14;;;;;;;0.20;0.10;;;;;;;9.64;85.00;95414.28;5070306;28;20741;-61
2023/03/14 09:46:44;;;;;;;0.45;0.10;;;;;;;9.64;85.61;95406.16;5067394;28;20032;-58
2023/03/14 09:49:19;;;;;;;1.30;0.17;;;;;;;9.81;86.43;95402.13;5071947;28;20068;-60
2023/03/14 09:51:49;;;;;;;1.77;0.30;;;;;;;9.57;86.38;95414.66;5072293;28;20532;-63
2023/03/14 09:54:42;;;;;;;0.90;0.30;;;;;;;9.80;85.99;95405.94;5069247;28;20135;-62
2023/03/14 09:57:16;;;;;;;1.23;0.40;;;;;;;10.02;86.25;95407.97;5068667;28;20135;-62
2023/03/14 09:59:45;;;;;;;0.45;0.30;;;;;;;10.11;86.13;95405.41;5074659;28;20044;-62
2023/03/14 10:02:20;;;;;;;0.70;0.20;;;;;;;10.19;84.82;95398.50;5070365;28;20520;-62
2023/03/14 10:04:50;;;;;;;1.80;0.50;;;;;;;10.30;83.66;95397.22;5074548;28;20132;-62
2023/03/14 10:07:21;;;;;;;1.95;0.40;;;;;;;10.17;81.23;95387.97;5078342;28;20102;-61
2023/03/14 10:09:50;;;;;;;2.05;0.30;;;;;;;10.31;83.17;95381.81;5077079;28;20052;-62
2023/03/14 10:12:18;;;;;;;0.80;0.17;;;;;;;10.48;79.60;95390.16;5071978;28;20040;-61
2023/03/14 10:14:49;;;;;;;0.70;0.20;;;;;;;10.30;79.91;95397.22;5072195;28;20059;-60
2023/03/14 10:17:18;;;;;;;0.30;0.10;;;;;;;10.24;79.94;95387.59;5070487;28;20040;-58
2023/03/14 10:19:59;;;;;;;0.63;0.30;;;;;;;10.20;82.71;95397.41;5072779;28;20047;-60
2023/03/14 10:22:31;;;;;;;0.17;0.10;;;;;;;9.97;84.32;95384.56;5070935;28;20612;-59
2023/03/14 10:25:07;;;;;;;0.32;0.10;;;;;;;10.14;86.43;95396.72;5069652;28;20029;-59
2023/03/14 10:27:35;;;;;;;0.73;0.17;;;;;;;10.11;89.00;95384.59;5070465;28;20040;-59
2023/03/14 10:30:08;;;;;;;0.38;0.20;;;;;;;10.08;87.52;95379.75;5076486;28;20039;-59
2023/03/14 10:32:37;;;;;;;0.63;0.20;;;;;;;10.07;86.04;95378.16;5067565;28;20032;-60
2023/03/14 10:35:13;;;;;;;2.33;0.40;;;;;;;10.27;85.01;95387.81;5065444;28;20123;-59
2023/03/14 10:38:01;;;;;;;0.80;0.05;;;;;;;10.17;84.16;95406.91;5079515;28;20047;-59
2023/03/14 10:40:31;;;;;;;0.28;0.10;;;;;;;10.23;87.01;95400.31;5073908;28;20040;-59
2023/03/14 10:42:59;;;;;;;0.00;0.00;;;;;;;9.82;88.56;95401.03;5071997;28;20592;-61
2023/03/14 10:45:30;;;;;;;0.40;0.20;;;;;;;9.82;87.57;95406.44;5075492;28;20090;-61
2023/03/14 10:48:19;;;;;;;0.45;0.10;;;;;;;9.59;90.94;95398.16;5077376;28;20419;-61
2023/03/14 10:50:55;;;;;;;0.85;0.20;;;;;;;9.30;92.60;95421.53;5072257;28;20131;-60
2023/03/14 10:53:22;;;;;;;1.30;0.30;;;;;;;9.09;96.31;95415.59;5066598;28;20043;-60
2023/03/14 10:55:52;;;;;;;0.90;0.30;;;;;;;8.92;99.40;95430.38;5067153;28;20123;-61
2023/03/14 10:58:22;;;;;;;2.72;0.30;;;;;;;9.06;99.88;95435.06;5068735;28;20040;-61
2023/03/14 11:00:57;;;;;;;0.63;0.43;;;;;;;9.17;97.53;95443.84;5074824;28;20059;-61
2023/03/14 11:03:27;;;;;;;0.68;0.20;;;;;;;9.11;99.65;95443.91;5074056;28;20115;-62
2023/03/14 11:06:02;;;;;;;0.52;0.30;;;;;;;8.84;100.00;95444.50;5069522;28;20039;-61
2023/03/14 11:08:53;;;;;;;2.85;0.40;;;;;;;8.84;100.00;95444.50;5070311;28;20543;-61
2023/03/14 11:11:25;;;;;;;0.63;0.43;;;;;;;8.65;100.00;95445.28;5072215;28;20040;-61
2023/03/14 11:13:52;;;;;;;;;;;;;;;8.70;100.00;95444.44;5073032;28;20071;-61
2023/03/14 11:16:51;;;;;;;2.38;0.30;;;;;;;8.60;100.00;95450.75;5070526;28;19920;-61
2023/03/14 11:19:21;;;;;;;1.23;0.40;;;;;;;8.63;100.00;95443.97;5073999;28;20087;-61
2023/03/14 11:22:06;;;;;;;2.33;0.55;;;;;;;8.56;100.00;95436.22;5073352;28;20048;-62
2023/03/14 11:25:14;;;;;;;0.85;0.10;;;;;;;8.70;100.00;95445.22;5070082;28;20040;-61
2023/03/14 11:28:01;;;;;;;0.40;0.25;;;;;;;8.86;100.00;95453.13;5046977;28;20179;-55
2023/03/14 11:30:33;;;;;;;0.52;0.22;;;;;;;8.93;98.75;95452.78;5070669;28;20036;-56
2023/03/14 11:33:18;;;;;;;0.63;0.10;;;;;;;8.94;98.27;95449.81;5072261;28;20109;-56
2023/03/14 11:36:07;;;;;;;0.63;0.20;;;;;;;8.83;97.62;95451.00;5069249;28;20052;-61
2023/03/14 11:38:40;;;;;;;0.45;0.20;;;;;;;8.89;97.81;95460.66;5072367;28;20048;-60
2023/03/14 11:41:17;;;;;;;0.30;0.20;;;;;;;8.81;98.35;95454.00;5073094;28;20043;-60
2023/03/14 11:43:48;;;;;;;0.35;0.20;;;;;;;8.87;99.61;95462.03;5071793;28;20076;-62
2023/03/14 11:46:21;;;;;;;0.60;0.30;;;;;;;8.76;99.11;95455.94;5066496;28;20641;-60
2023/03/14 11:49:09;;;;;;;0.22;0.20;;;;;;;8.82;98.79;95468.31;5072319;28;20447;-59
2023/03/14 11:51:39;;;;;;;0.20;0.20;;;;;;;8.84;97.73;95483.13;5066238;28;20665;-61
2023/03/14 11:54:18;;;;;;;0.50;0.22;;;;;;;8.85;97.88;95489.31;5071927;28;20043;-61
2023/03/14 11:56:55;;;;;;;0.40;0.10;;;;;;;8.79;98.70;95493.97;5070007;28;20048;-61